sensor_id;sensor_type;location;lat;lon;timestamp;temperature;humidity
40153;DHT22;26371;56.992;23.912;2024-01-15T00:00:14;-1.30;99.90
40153;DHT22;26371;56.992;23.912;2024-01-15T00:02:42;-1.30;99.90
40153;DHT22;26371;56.992;23.912;2024-01-15T00:05:11;-1.30;99.90
40153;DHT22;26371;56.992;23.912;2024-01-15T00:07:41;-1.30;99.90
40153;DHT22;26371;56.992;23.912;2024-01-15T00:10:10;-1.30;99.90
40153;DHT22;26371;56.992;23.912;2024-01-15T00:12:38;-1.40;99.90
40153;DHT22;26371;56.992;23.912;2024-01-15T00:15:08;-1.30;99.90
40153;DHT22;26371;56.992;23.912;2024-01-15T00:17:37;-1.30;99.90
40153;DHT22;26371;56.992;23.912;2024-01-15T00:20:07;-1.40;99.90
40153;DHT22;26371;56.992;23.912;2024-01-15T00:22:35;-1.30;99.90
40153;DHT22;26371;56.992;23.912;2024-01-15T00:25:06;-1.30;99.90
40153;DHT22;26371;56.992;23.912;2024-01-15T00:27:35;-1.30;99.90
40153;DHT22;26371;56.992;23.912;2024-01-15T00:30:05;-1.30;99.90
40153;DHT22;26371;56.992;23.912;2024-01-15T00:32:34;-1.30;99.90
40153;DHT22;26371;56.992;23.912;2024-01-15T00:35:04;-1.30;99.90
40153;DHT22;26371;56.992;23.912;2024-01-15T00:37:32;-1.30;99.90
40153;DHT22;26371;56.992;23.912;2024-01-15T00:40:01;-1.30;99.90
40153;DHT22;26371;56.992;23.912;2024-01-15T00:42:31;-1.30;99.90
40153;DHT22;26371;56.992;23.912;2024-01-15T00:45:00;-1.30;99.90
40153;DHT22;26371;56.992;23.912;2024-01-15T00:47:29;-1.20;99.90
40153;DHT22;26371;56.992;23.912;2024-01-15T00:49:59;-1.20;99.90
40153;DHT22;26371;56.992;23.912;2024-01-15T00:52:27;-1.20;99.90
40153;DHT22;26371;56.992;23.912;2024-01-15T00:54:56;-1.20;99.90
40153;DHT22;26371;56.992;23.912;2024-01-15T00:57:25;-1.30;99.90
40153;DHT22;26371;56.992;23.912;2024-01-15T00:59:55;-1.30;99.90
40153;DHT22;26371;56.992;23.912;2024-01-15T01:02:24;-1.20;99.90
40153;DHT22;26371;56.992;23.912;2024-01-15T01:04:52;-1.20;99.90
40153;DHT22;26371;56.992;23.912;2024-01-15T01:07:21;-1.20;99.90
40153;DHT22;26371;56.992;23.912;2024-01-15T01:09:50;-1.30;99.90
40153;DHT22;26371;56.992;23.912;2024-01-15T01:12:18;-1.30;99.90
40153;DHT22;26371;56.992;23.912;2024-01-15T01:14:47;-1.30;99.90
40153;DHT22;26371;56.992;23.912;2024-01-15T01:17:17;-1.30;99.90
40153;DHT22;26371;56.992;23.912;2024-01-15T01:19:46;-1.20;99.90
40153;DHT22;26371;56.992;23.912;2024-01-15T01:22:15;-1.20;99.90
40153;DHT22;26371;56.992;23.912;2024-01-15T01:24:44;-1.20;99.90
40153;DHT22;26371;56.992;23.912;2024-01-15T01:27:12;-1.20;99.90
40153;DHT22;26371;56.992;23.912;2024-01-15T01:29:41;-1.20;99.90
40153;DHT22;26371;56.992;23.912;2024-01-15T01:32:10;-1.20;99.90
40153;DHT22;26371;56.992;23.912;2024-01-15T01:34:41;-1.20;99.90
40153;DHT22;26371;56.992;23.912;2024-01-15T01:37:11;-1.20;99.90
40153;DHT22;26371;56.992;23.912;2024-01-15T01:39:41;-1.20;99.90
40153;DHT22;26371;56.992;23.912;2024-01-15T01:42:10;-1.20;99.90
40153;DHT22;26371;56.992;23.912;2024-01-15T01:44:39;-1.20;99.90
40153;DHT22;26371;56.992;23.912;2024-01-15T01:47:08;-1.20;99.90
40153;DHT22;26371;56.992;23.912;2024-01-15T01:49:38;-1.20;99.90
40153;DHT22;26371;56.992;23.912;2024-01-15T01:52:09;-1.20;99.90
40153;DHT22;26371;56.992;23.912;2024-01-15T01:54:40;-1.20;99.90
40153;DHT22;26371;56.992;23.912;2024-01-15T01:57:11;-1.10;99.90
40153;DHT22;26371;56.992;23.912;2024-01-15T01:59:42;-1.20;99.90
40153;DHT22;26371;56.992;23.912;2024-01-15T02:02:11;-1.20;99.90
40153;DHT22;26371;56.992;23.912;2024-01-15T02:04:40;-1.10;99.90
40153;DHT22;26371;56.992;23.912;2024-01-15T02:07:11;-1.20;99.90
40153;DHT22;26371;56.992;23.912;2024-01-15T02:09:41;-1.10;99.90
40153;DHT22;26371;56.992;23.912;2024-01-15T02:12:09;-1.20;99.90
40153;DHT22;26371;56.992;23.912;2024-01-15T02:14:39;-1.10;99.90
40153;DHT22;26371;56.992;23.912;2024-01-15T02:17:08;-1.20;99.90
40153;DHT22;26371;56.992;23.912;2024-01-15T02:19:36;-1.20;99.90
40153;DHT22;26371;56.992;23.912;2024-01-15T02:22:07;-1.20;99.90
40153;DHT22;26371;56.992;23.912;2024-01-15T02:24:37;-1.20;99.90
40153;DHT22;26371;56.992;23.912;2024-01-15T02:27:05;-1.10;99.90
40153;DHT22;26371;56.992;23.912;2024-01-15T02:29:35;-1.20;99.90
40153;DHT22;26371;56.992;23.912;2024-01-15T02:32:05;-1.10;99.90
40153;DHT22;26371;56.992;23.912;2024-01-15T02:34:34;-1.10;99.90
40153;DHT22;26371;56.992;23.912;2024-01-15T02:37:03;-1.10;99.90
40153;DHT22;26371;56.992;23.912;2024-01-15T02:39:32;-1.10;99.90
40153;DHT22;26371;56.992;23.912;2024-01-15T02:42:02;-1.10;99.90
40153;DHT22;26371;56.992;23.912;2024-01-15T02:44:30;-1.10;99.90
40153;DHT22;26371;56.992;23.912;2024-01-15T02:46:59;-1.10;99.90
40153;DHT22;26371;56.992;23.912;2024-01-15T02:49:28;-1.10;99.90
40153;DHT22;26371;56.992;23.912;2024-01-15T02:51:57;-1.10;99.90
40153;DHT22;26371;56.992;23.912;2024-01-15T02:54:25;-1.00;99.90
40153;DHT22;26371;56.992;23.912;2024-01-15T02:56:54;-1.10;99.90
40153;DHT22;26371;56.992;23.912;2024-01-15T02:59:25;-1.00;99.90
40153;DHT22;26371;56.992;23.912;2024-01-15T03:01:54;-1.10;99.90
40153;DHT22;26371;56.992;23.912;2024-01-15T03:04:22;-1.10;99.90
40153;DHT22;26371;56.992;23.912;2024-01-15T03:06:51;-1.10;99.90
40153;DHT22;26371;56.992;23.912;2024-01-15T03:09:20;-1.10;99.90
40153;DHT22;26371;56.992;23.912;2024-01-15T03:11:48;-1.10;99.90
40153;DHT22;26371;56.992;23.912;2024-01-15T03:14:17;-1.10;99.90
40153;DHT22;26371;56.992;23.912;2024-01-15T03:16:47;-1.10;99.90
40153;DHT22;26371;56.992;23.912;2024-01-15T03:19:15;-1.10;99.90
40153;DHT22;26371;56.992;23.912;2024-01-15T03:21:44;-1.10;99.90
40153;DHT22;26371;56.992;23.912;2024-01-15T03:24:14;-1.10;99.90
40153;DHT22;26371;56.992;23.912;2024-01-15T03:26:42;-1.10;99.90
40153;DHT22;26371;56.992;23.912;2024-01-15T03:29:12;-1.10;99.90
40153;DHT22;26371;56.992;23.912;2024-01-15T03:31:41;-1.10;99.90
40153;DHT22;26371;56.992;23.912;2024-01-15T03:34:11;-1.10;99.90
40153;DHT22;26371;56.992;23.912;2024-01-15T03:36:40;-1.10;99.90
40153;DHT22;26371;56.992;23.912;2024-01-15T03:39:09;-1.10;99.90
40153;DHT22;26371;56.992;23.912;2024-01-15T03:41:37;-1.10;99.90
40153;DHT22;26371;56.992;23.912;2024-01-15T03:44:06;-1.10;99.90
40153;DHT22;26371;56.992;23.912;2024-01-15T03:46:34;-1.10;99.90
40153;DHT22;26371;56.992;23.912;2024-01-15T03:49:03;-1.10;99.90
40153;DHT22;26371;56.992;23.912;2024-01-15T03:51:34;-1.10;99.90
40153;DHT22;26371;56.992;23.912;2024-01-15T03:54:02;-1.10;99.90
40153;DHT22;26371;56.992;23.912;2024-01-15T03:56:31;-1.10;99.90
40153;DHT22;26371;56.992;23.912;2024-01-15T03:59:00;-1.10;99.90
40153;DHT22;26371;56.992;23.912;2024-01-15T04:01:29;-1.10;99.90
40153;DHT22;26371;56.992;23.912;2024-01-15T04:03:57;-1.10;99.90
40153;DHT22;26371;56.992;23.912;2024-01-15T04:06:26;-1.00;99.90
40153;DHT22;26371;56.992;23.912;2024-01-15T04:08:57;-1.00;99.90
40153;DHT22;26371;56.992;23.912;2024-01-15T04:11:25;-1.00;99.90
40153;DHT22;26371;56.992;23.912;2024-01-15T04:13:54;-1.00;99.90
40153;DHT22;26371;56.992;23.912;2024-01-15T04:16:22;-1.00;99.90
40153;DHT22;26371;56.992;23.912;2024-01-15T04:18:51;-1.00;99.90
40153;DHT22;26371;56.992;23.912;2024-01-15T04:21:20;-1.00;99.90
40153;DHT22;26371;56.992;23.912;2024-01-15T04:23:48;-1.00;99.90
40153;DHT22;26371;56.992;23.912;2024-01-15T04:26:18;-1.00;99.90
40153;DHT22;26371;56.992;23.912;2024-01-15T04:28:49;-1.00;99.90
40153;DHT22;26371;56.992;23.912;2024-01-15T04:31:22;-1.00;99.90
40153;DHT22;26371;56.992;23.912;2024-01-15T04:33:51;-1.00;99.90
40153;DHT22;26371;56.992;23.912;2024-01-15T04:36:20;-1.00;99.90
40153;DHT22;26371;56.992;23.912;2024-01-15T04:38:49;-1.00;99.90
40153;DHT22;26371;56.992;23.912;2024-01-15T04:41:19;-1.00;99.90
40153;DHT22;26371;56.992;23.912;2024-01-15T04:43:48;-1.00;99.90
40153;DHT22;26371;56.992;23.912;2024-01-15T04:46:16;-0.90;99.90
40153;DHT22;26371;56.992;23.912;2024-01-15T04:48:45;-0.90;99.90
40153;DHT22;26371;56.992;23.912;2024-01-15T04:51:14;-0.90;99.90
40153;DHT22;26371;56.992;23.912;2024-01-15T04:53:43;-0.90;99.90
40153;DHT22;26371;56.992;23.912;2024-01-15T04:56:13;-0.90;99.90
40153;DHT22;26371;56.992;23.912;2024-01-15T04:58:43;-0.80;99.90
40153;DHT22;26371;56.992;23.912;2024-01-15T05:01:16;-0.80;99.90
40153;DHT22;26371;56.992;23.912;2024-01-15T05:03:45;-0.80;99.90
40153;DHT22;26371;56.992;23.912;2024-01-15T05:06:13;-0.80;99.90
40153;DHT22;26371;56.992;23.912;2024-01-15T05:08:44;-0.80;99.90
40153;DHT22;26371;56.992;23.912;2024-01-15T05:11:13;-0.80;99.90
40153;DHT22;26371;56.992;23.912;2024-01-15T05:13:43;-0.80;99.90
40153;DHT22;26371;56.992;23.912;2024-01-15T05:16:12;-0.80;99.90
40153;DHT22;26371;56.992;23.912;2024-01-15T05:18:40;-0.80;99.90
40153;DHT22;26371;56.992;23.912;2024-01-15T05:21:10;-0.80;99.90
40153;DHT22;26371;56.992;23.912;2024-01-15T05:23:39;-0.80;99.90
40153;DHT22;26371;56.992;23.912;2024-01-15T05:26:08;-0.80;99.90
40153;DHT22;26371;56.992;23.912;2024-01-15T05:28:37;-0.80;99.90
40153;DHT22;26371;56.992;23.912;2024-01-15T05:31:07;-0.70;99.90
40153;DHT22;26371;56.992;23.912;2024-01-15T05:33:36;-0.70;99.90
40153;DHT22;26371;56.992;23.912;2024-01-15T05:36:06;-0.70;99.90
40153;DHT22;26371;56.992;23.912;2024-01-15T05:38:34;-0.70;99.90
40153;DHT22;26371;56.992;23.912;2024-01-15T05:41:04;-0.70;99.90
40153;DHT22;26371;56.992;23.912;2024-01-15T05:43:33;-0.70;99.90
40153;DHT22;26371;56.992;23.912;2024-01-15T05:46:01;-0.70;99.90
40153;DHT22;26371;56.992;23.912;2024-01-15T05:48:31;-0.70;99.90
40153;DHT22;26371;56.992;23.912;2024-01-15T05:51:01;-0.70;99.90
40153;DHT22;26371;56.992;23.912;2024-01-15T05:53:29;-0.70;99.90
40153;DHT22;26371;56.992;23.912;2024-01-15T05:55:58;-0.70;99.90
40153;DHT22;26371;56.992;23.912;2024-01-15T05:58:28;-0.70;99.90
40153;DHT22;26371;56.992;23.912;2024-01-15T06:00:57;-0.70;99.90
40153;DHT22;26371;56.992;23.912;2024-01-15T06:03:26;-0.80;99.90
40153;DHT22;26371;56.992;23.912;2024-01-15T06:05:56;-0.80;99.90
40153;DHT22;26371;56.992;23.912;2024-01-15T06:08:25;-0.70;99.90
40153;DHT22;26371;56.992;23.912;2024-01-15T06:10:56;-0.80;99.90
40153;DHT22;26371;56.992;23.912;2024-01-15T06:13:28;-0.70;99.90
40153;DHT22;26371;56.992;23.912;2024-01-15T06:15:57;-0.70;99.90
40153;DHT22;26371;56.992;23.912;2024-01-15T06:18:25;-0.70;99.90
40153;DHT22;26371;56.992;23.912;2024-01-15T06:20:56;-0.70;99.90
40153;DHT22;26371;56.992;23.912;2024-01-15T06:23:25;-0.70;99.90
40153;DHT22;26371;56.992;23.912;2024-01-15T06:25:54;-0.70;99.90
40153;DHT22;26371;56.992;23.912;2024-01-15T06:28:22;-0.70;99.90
40153;DHT22;26371;56.992;23.912;2024-01-15T06:30:52;-0.80;99.90
40153;DHT22;26371;56.992;23.912;2024-01-15T06:33:21;-0.80;99.90
40153;DHT22;26371;56.992;23.912;2024-01-15T06:35:50;-0.80;99.90
40153;DHT22;26371;56.992;23.912;2024-01-15T06:38:20;-0.80;99.90
40153;DHT22;26371;56.992;23.912;2024-01-15T06:40:50;-0.80;99.90
40153;DHT22;26371;56.992;23.912;2024-01-15T06:43:20;-0.80;99.90
40153;DHT22;26371;56.992;23.912;2024-01-15T06:45:49;-0.80;99.90
40153;DHT22;26371;56.992;23.912;2024-01-15T06:48:18;-0.80;99.90
40153;DHT22;26371;56.992;23.912;2024-01-15T06:50:46;-0.80;99.90
40153;DHT22;26371;56.992;23.912;2024-01-15T06:53:15;-0.80;99.90
40153;DHT22;26371;56.992;23.912;2024-01-15T06:55:45;-0.80;99.90
40153;DHT22;26371;56.992;23.912;2024-01-15T06:58:14;-0.80;99.90
40153;DHT22;26371;56.992;23.912;2024-01-15T07:00:43;-0.80;99.90
40153;DHT22;26371;56.992;23.912;2024-01-15T07:03:13;-0.80;99.90
40153;DHT22;26371;56.992;23.912;2024-01-15T07:05:42;-0.80;99.90
40153;DHT22;26371;56.992;23.912;2024-01-15T07:08:11;-0.80;99.90
40153;DHT22;26371;56.992;23.912;2024-01-15T07:10:40;-0.80;99.90
40153;DHT22;26371;56.992;23.912;2024-01-15T07:13:10;-0.70;99.90
40153;DHT22;26371;56.992;23.912;2024-01-15T07:15:39;-0.70;99.90
40153;DHT22;26371;56.992;23.912;2024-01-15T07:18:07;-0.70;99.90
40153;DHT22;26371;56.992;23.912;2024-01-15T07:20:36;-0.70;99.90
40153;DHT22;26371;56.992;23.912;2024-01-15T07:23:05;-0.60;99.90
40153;DHT22;26371;56.992;23.912;2024-01-15T07:25:34;-0.60;99.90
40153;DHT22;26371;56.992;23.912;2024-01-15T07:28:03;-0.60;99.90
40153;DHT22;26371;56.992;23.912;2024-01-15T07:30:35;-0.60;99.90
40153;DHT22;26371;56.992;23.912;2024-01-15T07:33:06;-0.50;99.90
40153;DHT22;26371;56.992;23.912;2024-01-15T07:35:34;-0.50;99.90
40153;DHT22;26371;56.992;23.912;2024-01-15T07:38:03;-0.50;99.90
40153;DHT22;26371;56.992;23.912;2024-01-15T07:40:38;-0.50;99.90
40153;DHT22;26371;56.992;23.912;2024-01-15T07:43:07;-0.50;99.90
40153;DHT22;26371;56.992;23.912;2024-01-15T07:45:37;-0.50;99.90
40153;DHT22;26371;56.992;23.912;2024-01-15T07:48:09;-0.50;99.90
40153;DHT22;26371;56.992;23.912;2024-01-15T07:50:38;-0.50;99.90
40153;DHT22;26371;56.992;23.912;2024-01-15T07:53:07;-0.40;99.90
40153;DHT22;26371;56.992;23.912;2024-01-15T07:55:35;-0.40;99.90
40153;DHT22;26371;56.992;23.912;2024-01-15T07:58:05;-0.40;99.90
40153;DHT22;26371;56.992;23.912;2024-01-15T08:00:44;-0.40;99.90
40153;DHT22;26371;56.992;23.912;2024-01-15T08:03:13;-0.30;99.90
40153;DHT22;26371;56.992;23.912;2024-01-15T08:05:42;-0.30;99.90
40153;DHT22;26371;56.992;23.912;2024-01-15T08:08:11;-0.30;99.90
40153;DHT22;26371;56.992;23.912;2024-01-15T08:10:40;-0.30;99.90
40153;DHT22;26371;56.992;23.912;2024-01-15T08:13:09;-0.30;99.90
40153;DHT22;26371;56.992;23.912;2024-01-15T08:15:37;-0.30;99.90
40153;DHT22;26371;56.992;23.912;2024-01-15T08:18:08;-0.30;99.90
40153;DHT22;26371;56.992;23.912;2024-01-15T08:20:36;-0.30;99.90
40153;DHT22;26371;56.992;23.912;2024-01-15T08:23:05;-0.20;99.90
40153;DHT22;26371;56.992;23.912;2024-01-15T08:25:34;-0.20;99.90
40153;DHT22;26371;56.992;23.912;2024-01-15T08:28:03;-0.10;99.90
40153;DHT22;26371;56.992;23.912;2024-01-15T08:30:32;-0.10;99.90
40153;DHT22;26371;56.992;23.912;2024-01-15T08:33:01;-0.10;99.90
40153;DHT22;26371;56.992;23.912;2024-01-15T08:35:41;-0.10;99.90
40153;DHT22;26371;56.992;23.912;2024-01-15T08:38:10;0.00;99.90
40153;DHT22;26371;56.992;23.912;2024-01-15T08:40:39;0.00;99.90
40153;DHT22;26371;56.992;23.912;2024-01-15T08:43:07;0.00;99.90
40153;DHT22;26371;56.992;23.912;2024-01-15T08:45:36;0.10;99.90
40153;DHT22;26371;56.992;23.912;2024-01-15T08:48:05;0.10;99.90
40153;DHT22;26371;56.992;23.912;2024-01-15T08:50:34;0.10;99.90
40153;DHT22;26371;56.992;23.912;2024-01-15T08:53:04;0.10;99.90
40153;DHT22;26371;56.992;23.912;2024-01-15T08:55:33;0.10;99.90
40153;DHT22;26371;56.992;23.912;2024-01-15T08:58:01;0.10;99.90
40153;DHT22;26371;56.992;23.912;2024-01-15T09:00:30;0.20;99.90
40153;DHT22;26371;56.992;23.912;2024-01-15T09:02:59;0.20;99.90
40153;DHT22;26371;56.992;23.912;2024-01-15T09:05:29;0.20;99.90
40153;DHT22;26371;56.992;23.912;2024-01-15T09:07:58;0.30;99.90
40153;DHT22;26371;56.992;23.912;2024-01-15T09:10:27;0.30;99.90
40153;DHT22;26371;56.992;23.912;2024-01-15T09:12:56;0.40;99.90
40153;DHT22;26371;56.992;23.912;2024-01-15T09:15:25;0.30;99.90
40153;DHT22;26371;56.992;23.912;2024-01-15T09:17:54;0.40;99.90
40153;DHT22;26371;56.992;23.912;2024-01-15T09:20:24;0.40;99.90
40153;DHT22;26371;56.992;23.912;2024-01-15T09:22:55;0.40;99.90
40153;DHT22;26371;56.992;23.912;2024-01-15T09:25:23;0.40;99.90
40153;DHT22;26371;56.992;23.912;2024-01-15T09:27:53;0.40;99.90
40153;DHT22;26371;56.992;23.912;2024-01-15T09:30:22;0.50;99.90
40153;DHT22;26371;56.992;23.912;2024-01-15T09:32:51;0.50;99.90
40153;DHT22;26371;56.992;23.912;2024-01-15T09:35:20;0.40;99.90
40153;DHT22;26371;56.992;23.912;2024-01-15T09:37:51;0.40;99.90
40153;DHT22;26371;56.992;23.912;2024-01-15T09:40:20;0.50;99.90
40153;DHT22;26371;56.992;23.912;2024-01-15T09:42:53;0.50;99.90
40153;DHT22;26371;56.992;23.912;2024-01-15T09:45:22;0.50;99.90
40153;DHT22;26371;56.992;23.912;2024-01-15T09:47:51;0.50;99.90
40153;DHT22;26371;56.992;23.912;2024-01-15T09:50:20;0.50;99.90
40153;DHT22;26371;56.992;23.912;2024-01-15T09:52:49;0.60;99.90
40153;DHT22;26371;56.992;23.912;2024-01-15T09:55:18;0.60;99.90
40153;DHT22;26371;56.992;23.912;2024-01-15T09:57:47;0.60;99.90
40153;DHT22;26371;56.992;23.912;2024-01-15T10:00:18;0.60;99.90
40153;DHT22;26371;56.992;23.912;2024-01-15T10:02:47;0.60;99.90
40153;DHT22;26371;56.992;23.912;2024-01-15T10:05:17;0.70;99.90
40153;DHT22;26371;56.992;23.912;2024-01-15T10:07:46;0.70;99.90
40153;DHT22;26371;56.992;23.912;2024-01-15T10:10:17;0.70;99.90
40153;DHT22;26371;56.992;23.912;2024-01-15T10:12:46;0.70;99.90
40153;DHT22;26371;56.992;23.912;2024-01-15T10:15:14;0.80;99.90
40153;DHT22;26371;56.992;23.912;2024-01-15T10:17:46;0.80;99.90
40153;DHT22;26371;56.992;23.912;2024-01-15T10:20:17;0.80;99.90
40153;DHT22;26371;56.992;23.912;2024-01-15T10:22:45;0.80;99.90
40153;DHT22;26371;56.992;23.912;2024-01-15T10:25:15;0.80;99.90
40153;DHT22;26371;56.992;23.912;2024-01-15T10:27:59;0.80;99.90
40153;DHT22;26371;56.992;23.912;2024-01-15T10:30:30;0.80;99.90
40153;DHT22;26371;56.992;23.912;2024-01-15T10:33:03;0.80;99.90
40153;DHT22;26371;56.992;23.912;2024-01-15T10:35:33;0.80;99.90
40153;DHT22;26371;56.992;23.912;2024-01-15T10:38:03;0.90;99.90
40153;DHT22;26371;56.992;23.912;2024-01-15T10:40:33;0.80;99.90
40153;DHT22;26371;56.992;23.912;2024-01-15T10:43:02;0.90;99.90
40153;DHT22;26371;56.992;23.912;2024-01-15T10:45:31;0.80;99.90
40153;DHT22;26371;56.992;23.912;2024-01-15T10:48:01;0.90;99.90
40153;DHT22;26371;56.992;23.912;2024-01-15T10:50:31;0.90;99.90
40153;DHT22;26371;56.992;23.912;2024-01-15T10:53:00;0.90;99.90
40153;DHT22;26371;56.992;23.912;2024-01-15T10:55:30;0.90;99.90
40153;DHT22;26371;56.992;23.912;2024-01-15T10:58:01;0.90;99.90
40153;DHT22;26371;56.992;23.912;2024-01-15T11:00:31;0.90;99.90
40153;DHT22;26371;56.992;23.912;2024-01-15T11:03:02;0.90;99.90
40153;DHT22;26371;56.992;23.912;2024-01-15T11:05:34;0.90;99.90
40153;DHT22;26371;56.992;23.912;2024-01-15T11:08:06;0.90;99.90
40153;DHT22;26371;56.992;23.912;2024-01-15T11:10:38;0.90;99.90
40153;DHT22;26371;56.992;23.912;2024-01-15T11:13:09;0.90;99.90
40153;DHT22;26371;56.992;23.912;2024-01-15T11:15:58;0.90;99.90
40153;DHT22;26371;56.992;23.912;2024-01-15T11:18:31;0.90;99.90
40153;DHT22;26371;56.992;23.912;2024-01-15T11:21:22;0.90;99.90
40153;DHT22;26371;56.992;23.912;2024-01-15T11:23:54;0.80;99.90
40153;DHT22;26371;56.992;23.912;2024-01-15T11:26:29;0.80;99.90
40153;DHT22;26371;56.992;23.912;2024-01-15T11:28:59;0.90;99.90
40153;DHT22;26371;56.992;23.912;2024-01-15T11:31:29;0.90;99.90
40153;DHT22;26371;56.992;23.912;2024-01-15T11:33:59;0.90;99.90
40153;DHT22;26371;56.992;23.912;2024-01-15T11:37:02;0.90;99.90
40153;DHT22;26371;56.992;23.912;2024-01-15T11:39:41;1.00;99.90
40153;DHT22;26371;56.992;23.912;2024-01-15T11:42:14;0.90;99.90
40153;DHT22;26371;56.992;23.912;2024-01-15T11:44:43;1.00;99.90
40153;DHT22;26371;56.992;23.912;2024-01-15T11:47:12;1.00;99.90
40153;DHT22;26371;56.992;23.912;2024-01-15T11:50:03;1.00;99.90
40153;DHT22;26371;56.992;23.912;2024-01-15T11:52:34;1.00;99.90
40153;DHT22;26371;56.992;23.912;2024-01-15T11:55:14;1.00;99.90
40153;DHT22;26371;56.992;23.912;2024-01-15T11:57:46;1.00;99.90
40153;DHT22;26371;56.992;23.912;2024-01-15T12:00:16;1.10;99.90
40153;DHT22;26371;56.992;23.912;2024-01-15T12:02:46;1.10;99.90
40153;DHT22;26371;56.992;23.912;2024-01-15T12:05:16;1.10;99.90
40153;DHT22;26371;56.992;23.912;2024-01-15T12:07:46;1.10;99.90
40153;DHT22;26371;56.992;23.912;2024-01-15T12:10:18;1.10;99.90
40153;DHT22;26371;56.992;23.912;2024-01-15T12:13:05;1.10;99.90
40153;DHT22;26371;56.992;23.912;2024-01-15T12:15:34;1.10;99.90
40153;DHT22;26371;56.992;23.912;2024-01-15T12:18:03;1.10;99.90
40153;DHT22;26371;56.992;23.912;2024-01-15T12:20:33;1.10;99.90
40153;DHT22;26371;56.992;23.912;2024-01-15T12:23:02;1.10;99.90
40153;DHT22;26371;56.992;23.912;2024-01-15T12:25:35;1.10;99.90
40153;DHT22;26371;56.992;23.912;2024-01-15T12:28:06;1.10;99.90
40153;DHT22;26371;56.992;23.912;2024-01-15T12:30:35;1.10;99.90
40153;DHT22;26371;56.992;23.912;2024-01-15T12:33:06;1.10;99.90
40153;DHT22;26371;56.992;23.912;2024-01-15T12:35:38;1.10;99.90
40153;DHT22;26371;56.992;23.912;2024-01-15T12:38:06;1.10;99.90
40153;DHT22;26371;56.992;23.912;2024-01-15T12:40:35;1.10;99.90
40153;DHT22;26371;56.992;23.912;2024-01-15T12:43:05;1.20;99.90
40153;DHT22;26371;56.992;23.912;2024-01-15T12:45:36;1.10;99.90
40153;DHT22;26371;56.992;23.912;2024-01-15T12:48:05;1.10;99.90
40153;DHT22;26371;56.992;23.912;2024-01-15T12:50:34;1.10;99.90
40153;DHT22;26371;56.992;23.912;2024-01-15T12:53:05;1.10;99.90
40153;DHT22;26371;56.992;23.912;2024-01-15T12:55:35;1.10;99.90
40153;DHT22;26371;56.992;23.912;2024-01-15T12:58:04;1.00;99.90
40153;DHT22;26371;56.992;23.912;2024-01-15T13:00:32;1.00;99.90
40153;DHT22;26371;56.992;23.912;2024-01-15T13:03:02;1.10;99.90
40153;DHT22;26371;56.992;23.912;2024-01-15T13:05:32;1.10;99.90
40153;DHT22;26371;56.992;23.912;2024-01-15T13:08:05;1.00;99.90
40153;DHT22;26371;56.992;23.912;2024-01-15T13:10:34;1.00;99.90
40153;DHT22;26371;56.992;23.912;2024-01-15T13:13:03;1.00;99.90
40153;DHT22;26371;56.992;23.912;2024-01-15T13:15:32;1.00;99.90
40153;DHT22;26371;56.992;23.912;2024-01-15T13:18:01;1.00;99.90
40153;DHT22;26371;56.992;23.912;2024-01-15T13:20:30;0.90;99.90
40153;DHT22;26371;56.992;23.912;2024-01-15T13:22:59;0.90;99.90
40153;DHT22;26371;56.992;23.912;2024-01-15T13:25:32;0.90;99.90
40153;DHT22;26371;56.992;23.912;2024-01-15T13:28:05;0.90;99.90
40153;DHT22;26371;56.992;23.912;2024-01-15T13:30:33;0.90;99.90
40153;DHT22;26371;56.992;23.912;2024-01-15T13:33:02;0.90;99.90
40153;DHT22;26371;56.992;23.912;2024-01-15T13:35:32;0.90;99.90
40153;DHT22;26371;56.992;23.912;2024-01-15T13:38:01;0.90;99.90
40153;DHT22;26371;56.992;23.912;2024-01-15T13:40:31;0.90;99.90
40153;DHT22;26371;56.992;23.912;2024-01-15T13:43:00;0.90;99.90
40153;DHT22;26371;56.992;23.912;2024-01-15T13:45:29;0.90;99.90
40153;DHT22;26371;56.992;23.912;2024-01-15T13:47:57;0.80;99.90
40153;DHT22;26371;56.992;23.912;2024-01-15T13:50:26;0.80;99.90
40153;DHT22;26371;56.992;23.912;2024-01-15T13:52:56;0.80;99.90
40153;DHT22;26371;56.992;23.912;2024-01-15T13:55:24;0.80;99.90
40153;DHT22;26371;56.992;23.912;2024-01-15T13:57:54;0.80;99.90
40153;DHT22;26371;56.992;23.912;2024-01-15T14:00:24;0.80;99.90
40153;DHT22;26371;56.992;23.912;2024-01-15T14:02:53;0.80;99.90
40153;DHT22;26371;56.992;23.912;2024-01-15T14:05:22;0.70;99.90
40153;DHT22;26371;56.992;23.912;2024-01-15T14:07:50;0.70;99.90
40153;DHT22;26371;56.992;23.912;2024-01-15T14:10:20;0.70;99.90
40153;DHT22;26371;56.992;23.912;2024-01-15T14:12:50;0.70;99.90
40153;DHT22;26371;56.992;23.912;2024-01-15T14:15:20;0.70;99.90
40153;DHT22;26371;56.992;23.912;2024-01-15T14:17:49;0.70;99.90
40153;DHT22;26371;56.992;23.912;2024-01-15T14:20:18;0.80;99.90
40153;DHT22;26371;56.992;23.912;2024-01-15T14:22:49;0.80;99.90
40153;DHT22;26371;56.992;23.912;2024-01-15T14:25:17;0.80;99.90
40153;DHT22;26371;56.992;23.912;2024-01-15T14:27:46;0.80;99.90
40153;DHT22;26371;56.992;23.912;2024-01-15T14:30:15;0.80;99.90
40153;DHT22;26371;56.992;23.912;2024-01-15T14:32:45;0.80;99.90
40153;DHT22;26371;56.992;23.912;2024-01-15T14:35:14;0.70;99.90
40153;DHT22;26371;56.992;23.912;2024-01-15T14:37:43;0.70;99.90
40153;DHT22;26371;56.992;23.912;2024-01-15T14:40:11;0.70;99.90
40153;DHT22;26371;56.992;23.912;2024-01-15T14:42:44;0.70;99.90
40153;DHT22;26371;56.992;23.912;2024-01-15T14:45:13;0.70;99.90
40153;DHT22;26371;56.992;23.912;2024-01-15T14:47:42;0.70;99.90
40153;DHT22;26371;56.992;23.912;2024-01-15T14:50:13;0.70;99.90
40153;DHT22;26371;56.992;23.912;2024-01-15T14:52:41;0.70;99.90
40153;DHT22;26371;56.992;23.912;2024-01-15T14:55:12;0.60;99.90
40153;DHT22;26371;56.992;23.912;2024-01-15T14:57:41;0.60;99.90
40153;DHT22;26371;56.992;23.912;2024-01-15T15:00:10;0.70;99.90
40153;DHT22;26371;56.992;23.912;2024-01-15T15:02:41;0.70;99.90
40153;DHT22;26371;56.992;23.912;2024-01-15T15:05:09;0.70;99.90
40153;DHT22;26371;56.992;23.912;2024-01-15T15:07:42;0.60;99.90
40153;DHT22;26371;56.992;23.912;2024-01-15T15:10:11;0.70;99.90
40153;DHT22;26371;56.992;23.912;2024-01-15T15:12:40;0.70;99.90
40153;DHT22;26371;56.992;23.912;2024-01-15T15:15:09;0.70;99.90
40153;DHT22;26371;56.992;23.912;2024-01-15T15:17:44;0.70;99.90
40153;DHT22;26371;56.992;23.912;2024-01-15T15:20:13;0.60;99.90
40153;DHT22;26371;56.992;23.912;2024-01-15T15:22:44;0.60;99.90
40153;DHT22;26371;56.992;23.912;2024-01-15T15:25:14;0.60;99.90
40153;DHT22;26371;56.992;23.912;2024-01-15T15:27:42;0.60;99.90
40153;DHT22;26371;56.992;23.912;2024-01-15T15:30:11;0.60;99.90
40153;DHT22;26371;56.992;23.912;2024-01-15T15:32:40;0.60;99.90
40153;DHT22;26371;56.992;23.912;2024-01-15T15:35:09;0.60;99.90
40153;DHT22;26371;56.992;23.912;2024-01-15T15:37:38;0.60;99.90